createdAt,value
2022-08-08T00:00:55.024Z,24.80
2022-08-08T00:02:58.750Z,24.80
2022-08-08T00:05:44.232Z,24.60
2022-08-08T00:08:30.350Z,24.50
2022-08-08T00:11:12.945Z,24.40
2022-08-08T00:14:15.710Z,24.40
2022-08-08T00:16:43.882Z,24.40
2022-08-08T00:19:17.245Z,24.40
2022-08-08T00:21:49.854Z,24.40
2022-08-08T00:24:24.062Z,24.20
2022-08-08T00:27:06.202Z,24.20
2022-08-08T00:29:45.635Z,24.00
2022-08-08T00:32:34.035Z,24.10
2022-08-08T00:35:28.299Z,24.10
2022-08-08T00:38:16.774Z,24.10
2022-08-08T00:41:54.877Z,24.10
2022-08-08T00:44:51.736Z,24.10
2022-08-08T00:48:04.936Z,23.80
2022-08-08T00:51:16.104Z,23.80
2022-08-08T00:54:15.452Z,23.90
2022-08-08T00:57:29.653Z,23.90
2022-08-08T01:00:13.468Z,23.90
2022-08-08T01:04:01.459Z,23.90
2022-08-08T01:06:27.884Z,23.70
2022-08-08T01:09:35.788Z,23.70
2022-08-08T01:12:46.644Z,23.80
2022-08-08T01:15:54.727Z,23.80
2022-08-08T01:18:54.814Z,23.60
2022-08-08T01:22:13.587Z,23.50
2022-08-08T01:25:00.724Z,23.50
2022-08-08T01:28:04.814Z,23.50
2022-08-08T01:31:23.687Z,23.40
2022-08-08T01:34:38.537Z,23.10
2022-08-08T01:37:41.298Z,23.20
2022-08-08T01:40:28.778Z,23.30
2022-08-08T01:43:21.839Z,23.30
2022-08-08T01:45:58.137Z,23.40
2022-08-08T01:48:43.766Z,23.40
2022-08-08T01:52:41.613Z,23.40
2022-08-08T01:55:44.890Z,23.30
2022-08-08T01:57:33.738Z,23.30
2022-08-08T02:00:22.678Z,23.20
2022-08-08T02:03:55.476Z,23.20
2022-08-08T02:06:32.711Z,22.90
2022-08-08T02:09:17.389Z,22.50
2022-08-08T02:11:58.857Z,22.60
2022-08-08T02:14:34.628Z,22.50
2022-08-08T02:17:26.697Z,22.40
2022-08-08T02:21:00.043Z,22.50
2022-08-08T02:23:09.440Z,22.60
2022-08-08T02:25:52.978Z,22.70
2022-08-08T02:28:35.753Z,22.70
2022-08-08T02:31:43.228Z,22.70
2022-08-08T02:34:14.989Z,22.60
2022-08-08T02:37:04.729Z,22.20
2022-08-08T02:40:00.093Z,22.00
2022-08-08T02:44:35.433Z,22.10
2022-08-08T02:46:29.022Z,22.10
2022-08-08T02:50:03.416Z,22.20
2022-08-08T02:52:50.863Z,22.30
2022-08-08T02:56:01.553Z,22.30
2022-08-08T02:59:25.812Z,22.20
2022-08-08T03:02:30.043Z,22.10
2022-08-08T03:05:55.558Z,22.10
2022-08-08T03:09:12.235Z,22.20
2022-08-08T03:12:36.890Z,22.10
2022-08-08T03:15:58.110Z,22.10
2022-08-08T03:18:39.102Z,22.20
2022-08-08T03:21:10.261Z,22.20
2022-08-08T03:23:59.968Z,22.10
2022-08-08T03:26:41.952Z,22.10
2022-08-08T03:29:16.927Z,22.10
2022-08-08T03:32:08.375Z,22.00
2022-08-08T03:34:39.934Z,22.00
2022-08-08T03:38:00.058Z,21.90
2022-08-08T03:40:02.378Z,21.90
2022-08-08T03:42:31.984Z,21.90
2022-08-08T03:45:00.151Z,22.00
2022-08-08T03:47:39.709Z,21.90
2022-08-08T03:50:20.119Z,21.90
2022-08-08T03:52:52.985Z,22.00
2022-08-08T03:55:57.843Z,22.00
2022-08-08T03:58:36.130Z,21.90
2022-08-08T04:01:23.431Z,21.80
2022-08-08T04:03:58.573Z,21.80
2022-08-08T04:06:29.570Z,21.80
2022-08-08T04:08:58.401Z,21.80
2022-08-08T04:11:48.076Z,21.70
2022-08-08T04:14:34.859Z,21.70
2022-08-08T04:17:07.065Z,21.70
2022-08-08T04:19:43.709Z,21.70
2022-08-08T04:22:11.772Z,21.70
2022-08-08T04:24:44.487Z,21.70
2022-08-08T04:28:02.693Z,21.70
2022-08-08T04:30:18.364Z,21.80
2022-08-08T04:32:48.105Z,21.80
2022-08-08T04:35:18.290Z,21.90
2022-08-08T04:37:50.908Z,21.90
2022-08-08T04:40:19.329Z,21.80
2022-08-08T04:42:57.142Z,21.70
2022-08-08T04:45:26.046Z,21.40
2022-08-08T04:47:54.350Z,21.40
2022-08-08T04:50:24.111Z,21.40
2022-08-08T04:53:00.675Z,21.30
2022-08-08T04:55:47.153Z,21.20
2022-08-08T04:58:18.042Z,21.30
2022-08-08T05:00:47.571Z,21.30
2022-08-08T05:03:18.883Z,21.40
2022-08-08T05:06:12.675Z,21.30
2022-08-08T05:08:42.185Z,21.40
2022-08-08T05:11:18.652Z,21.50
2022-08-08T05:13:54.827Z,21.60
2022-08-08T05:16:52.196Z,21.60
2022-08-08T05:20:09.609Z,21.60
2022-08-08T05:22:02.196Z,21.70
2022-08-08T05:24:30.819Z,21.70
2022-08-08T05:26:59.181Z,21.80
2022-08-08T05:29:29.233Z,21.90
2022-08-08T05:32:04.571Z,22.00
2022-08-08T05:34:37.552Z,22.00
2022-08-08T05:37:07.508Z,22.10
2022-08-08T05:39:51.201Z,22.30
2022-08-08T05:42:25.641Z,22.40
2022-08-08T05:45:00.448Z,22.40
2022-08-08T05:47:41.753Z,22.10
2022-08-08T05:50:18.830Z,22.00
2022-08-08T05:52:48.599Z,22.10
2022-08-08T05:55:16.558Z,22.20
2022-08-08T05:58:04.065Z,22.30
2022-08-08T06:00:36.104Z,22.40
2022-08-08T06:03:24.686Z,22.60
2022-08-08T06:05:58.975Z,22.70
2022-08-08T06:08:34.504Z,22.70
2022-08-08T06:11:04.348Z,22.80
2022-08-08T06:13:35.590Z,22.80
2022-08-08T06:16:13.501Z,22.60
2022-08-08T06:18:43.014Z,22.20
2022-08-08T06:21:32.441Z,22.00
2022-08-08T06:24:03.380Z,22.00
2022-08-08T06:26:45.608Z,22.10
2022-08-08T06:29:56.546Z,22.10
2022-08-08T06:32:17.420Z,22.20
2022-08-08T06:34:56.425Z,22.40
2022-08-08T06:37:40.000Z,22.50
2022-08-08T06:40:16.036Z,22.60
2022-08-08T06:42:53.057Z,22.70
2022-08-08T06:45:22.921Z,22.60
2022-08-08T06:48:01.514Z,22.70
2022-08-08T06:50:33.755Z,22.70
2022-08-08T06:53:13.983Z,22.80
2022-08-08T06:55:47.146Z,22.90
2022-08-08T06:58:24.438Z,23.00
2022-08-08T07:01:02.111Z,23.00
2022-08-08T07:04:39.754Z,23.10
2022-08-08T07:06:50.372Z,23.20
2022-08-08T07:09:21.702Z,23.20
2022-08-08T07:11:51.921Z,23.00
2022-08-08T07:14:27.331Z,23.00
2022-08-08T07:17:09.325Z,23.10
2022-08-08T07:19:53.181Z,23.20
2022-08-08T07:22:37.199Z,23.30
2022-08-08T07:25:06.517Z,23.40
2022-08-08T07:28:00.837Z,23.50
2022-08-08T07:30:26.721Z,23.50
2022-08-08T07:32:55.398Z,23.60
2022-08-08T07:35:30.954Z,23.70
2022-08-08T07:38:10.186Z,23.70
2022-08-08T07:40:47.265Z,23.80
2022-08-08T07:43:16.807Z,23.80
2022-08-08T07:46:17.886Z,23.70
2022-08-08T07:48:39.220Z,23.30
2022-08-08T07:51:13.677Z,23.40
2022-08-08T07:54:06.277Z,23.40
2022-08-08T07:56:39.710Z,23.50
2022-08-08T07:59:14.789Z,23.50
2022-08-08T08:02:35.781Z,23.50
2022-08-08T08:04:49.266Z,23.10
2022-08-08T08:07:31.784Z,23.20
2022-08-08T08:10:03.628Z,23.30
2022-08-08T08:12:43.457Z,23.40
2022-08-08T08:15:16.068Z,23.60
2022-08-08T08:17:49.090Z,23.70
2022-08-08T08:20:19.575Z,23.80
2022-08-08T08:22:50.397Z,23.90
2022-08-08T08:25:19.309Z,23.90
2022-08-08T08:27:47.596Z,24.00
2022-08-08T08:30:15.870Z,24.00
2022-08-08T08:32:51.284Z,24.10
2022-08-08T08:35:29.421Z,24.20
2022-08-08T08:38:17.366Z,24.20
2022-08-08T08:40:48.759Z,24.20
2022-08-08T08:43:19.998Z,24.20
2022-08-08T08:45:57.498Z,24.20
2022-08-08T08:48:26.582Z,24.20
2022-08-08T08:51:00.181Z,24.20
2022-08-08T08:53:56.474Z,24.30
2022-08-08T08:56:24.147Z,24.30
2022-08-08T08:58:53.637Z,24.40
2022-08-08T09:01:27.881Z,24.40
2022-08-08T09:04:01.825Z,24.40
2022-08-08T09:06:40.454Z,24.40
2022-08-08T09:09:35.570Z,24.60
2022-08-08T09:12:12.712Z,24.60
2022-08-08T09:14:45.060Z,24.60
2022-08-08T09:17:18.875Z,24.40
2022-08-08T09:22:01.006Z,24.40
2022-08-08T09:22:36.233Z,24.40
2022-08-08T09:25:10.460Z,24.50
2022-08-08T09:27:55.965Z,24.50
2022-08-08T09:30:27.825Z,24.50
2022-08-08T09:33:55.362Z,24.50
2022-08-08T09:35:49.789Z,24.20
2022-08-08T09:38:32.784Z,24.00
2022-08-08T09:41:06.547Z,24.00
2022-08-08T09:44:04.810Z,24.10
2022-08-08T09:46:36.499Z,24.10
2022-08-08T09:49:41.744Z,24.20
2022-08-08T09:52:07.001Z,24.40
2022-08-08T09:54:44.143Z,24.50
2022-08-08T09:57:19.049Z,24.50
2022-08-08T10:00:28.738Z,24.50
2022-08-08T10:02:41.825Z,24.40
2022-08-08T10:05:20.044Z,24.30
2022-08-08T10:07:59.895Z,24.30
2022-08-08T10:10:32.464Z,24.20
2022-08-08T10:13:14.287Z,24.20
2022-08-08T10:16:00.671Z,24.30
2022-08-08T10:18:30.999Z,24.30
2022-08-08T10:21:22.415Z,24.30
2022-08-08T10:23:58.459Z,24.40
2022-08-08T10:26:57.146Z,24.50
2022-08-08T10:29:25.103Z,24.60
2022-08-08T10:32:16.973Z,24.40
2022-08-08T10:34:57.098Z,24.50
2022-08-08T10:37:30.550Z,24.50
2022-08-08T10:40:02.454Z,24.90
2022-08-08T10:42:37.524Z,25.10
2022-08-08T10:45:09.732Z,25.10
2022-08-08T10:47:43.780Z,24.70
2022-08-08T10:50:15.631Z,24.40
2022-08-08T10:52:44.851Z,24.30
2022-08-08T10:55:39.322Z,24.20
2022-08-08T10:58:07.392Z,24.00
2022-08-08T11:00:52.663Z,24.40
2022-08-08T11:04:01.061Z,24.40
2022-08-08T11:06:32.010Z,25.10
2022-08-08T11:09:15.107Z,25.40
2022-08-08T11:12:05.409Z,25.30
2022-08-08T11:14:36.571Z,25.20
2022-08-08T11:17:14.986Z,25.50
2022-08-08T11:19:46.470Z,25.80
2022-08-08T11:22:25.195Z,25.60
2022-08-08T11:24:57.452Z,25.20
2022-08-08T11:27:29.225Z,25.00
2022-08-08T11:30:20.136Z,25.20
2022-08-08T11:32:55.909Z,25.40
2022-08-08T11:35:38.508Z,25.50
2022-08-08T11:38:36.115Z,25.60
2022-08-08T11:40:59.128Z,25.50
2022-08-08T11:43:39.371Z,25.90
2022-08-08T11:46:13.359Z,26.00
2022-08-08T11:48:47.396Z,25.60
2022-08-08T11:51:30.444Z,25.40
2022-08-08T11:54:27.381Z,25.30
2022-08-08T11:56:56.559Z,25.20
2022-08-08T11:59:58.559Z,25.80
2022-08-08T12:02:32.246Z,26.10
2022-08-08T12:05:07.800Z,26.40
2022-08-08T12:07:51.545Z,26.40
2022-08-08T12:10:21.383Z,26.90
2022-08-08T12:12:51.876Z,26.60
2022-08-08T12:15:40.104Z,26.10
2022-08-08T12:18:17.908Z,25.60
2022-08-08T12:20:47.676Z,25.20
2022-08-08T12:23:30.108Z,25.00
2022-08-08T12:26:09.891Z,24.90
2022-08-08T12:28:38.047Z,24.70
2022-08-08T12:31:07.554Z,24.60
2022-08-08T12:34:01.862Z,24.70
2022-08-08T12:36:40.238Z,24.90
2022-08-08T12:39:14.634Z,25.00
2022-08-08T12:41:57.121Z,25.10
2022-08-08T12:44:32.222Z,25.00
2022-08-08T12:47:02.867Z,25.30
2022-08-08T12:49:43.451Z,25.80
2022-08-08T12:52:28.686Z,25.60
2022-08-08T12:55:13.176Z,25.50
2022-08-08T12:57:56.220Z,25.50
2022-08-08T13:00:33.853Z,25.50
2022-08-08T13:03:02.328Z,25.70
2022-08-08T13:06:02.959Z,26.00
2022-08-08T13:08:21.839Z,26.60
2022-08-08T13:10:56.426Z,26.50
2022-08-08T13:13:35.487Z,26.30
2022-08-08T13:16:19.842Z,26.30
2022-08-08T13:18:55.715Z,26.20
2022-08-08T13:21:36.497Z,26.60
2022-08-08T13:24:18.602Z,26.40
2022-08-08T13:27:05.663Z,26.60
2022-08-08T13:29:50.976Z,26.80
2022-08-08T13:32:20.876Z,26.40
2022-08-08T13:34:53.994Z,26.40
2022-08-08T13:37:51.585Z,26.60
2022-08-08T13:40:17.662Z,26.40
2022-08-08T13:42:54.478Z,26.30
2022-08-08T13:45:23.903Z,26.10
2022-08-08T13:47:58.040Z,26.00
2022-08-08T13:50:38.310Z,25.60
2022-08-08T13:53:24.497Z,25.50
2022-08-08T13:56:00.907Z,25.50
2022-08-08T13:58:29.379Z,25.40
2022-08-08T14:00:57.749Z,25.50
2022-08-08T14:03:52.462Z,25.50
2022-08-08T14:06:32.125Z,25.60
2022-08-08T14:09:24.307Z,25.60
2022-08-08T14:11:52.108Z,25.70
2022-08-08T14:14:26.949Z,25.60
2022-08-08T14:16:57.329Z,25.80
2022-08-08T14:19:57.256Z,26.00
2022-08-08T14:22:24.473Z,26.00
2022-08-08T14:24:56.289Z,26.30
2022-08-08T14:27:33.281Z,26.60
2022-08-08T14:30:17.110Z,26.40
2022-08-08T14:32:53.076Z,26.10
2022-08-08T14:35:22.646Z,25.90
2022-08-08T14:37:59.711Z,25.70
2022-08-08T14:40:31.305Z,25.60
2022-08-08T14:43:01.766Z,25.50
2022-08-08T14:46:02.757Z,25.50
2022-08-08T14:48:41.630Z,25.60
2022-08-08T14:51:21.032Z,25.90
2022-08-08T14:53:55.047Z,26.10
2022-08-08T14:56:24.840Z,26.20
2022-08-08T14:58:54.669Z,26.10
2022-08-08T15:01:40.940Z,26.20
2022-08-08T15:04:12.553Z,26.60
2022-08-08T15:06:42.573Z,27.20
2022-08-08T15:09:12.377Z,27.70
2022-08-08T15:11:46.206Z,28.20
2022-08-08T15:14:26.395Z,28.00
2022-08-08T15:16:55.075Z,28.00
2022-08-08T15:19:27.971Z,27.60
2022-08-08T15:21:57.696Z,27.70
2022-08-08T15:24:31.060Z,27.50
2022-08-08T15:27:00.241Z,27.50
2022-08-08T15:29:41.726Z,27.80
2022-08-08T15:32:20.746Z,28.00
2022-08-08T15:34:50.528Z,27.90
2022-08-08T15:37:19.149Z,27.60
2022-08-08T15:39:48.125Z,27.40
2022-08-08T15:42:31.434Z,27.20
2022-08-08T15:45:02.587Z,27.40
2022-08-08T15:47:32.164Z,27.40
2022-08-08T15:50:00.697Z,27.70
2022-08-08T15:52:30.319Z,27.00
2022-08-08T15:55:01.201Z,27.10
2022-08-08T15:57:35.562Z,27.00
2022-08-08T16:00:27.503Z,27.00
2022-08-08T16:02:58.008Z,26.90
2022-08-08T16:05:35.277Z,27.00
2022-08-08T16:08:13.783Z,27.50
2022-08-08T16:13:28.723Z,27.60
2022-08-08T16:13:33.871Z,27.80
2022-08-08T16:16:18.056Z,28.30
2022-08-08T16:18:53.246Z,28.50
2022-08-08T16:21:27.700Z,28.70
2022-08-08T16:23:56.653Z,28.60
2022-08-08T16:26:33.924Z,28.80
2022-08-08T16:29:08.024Z,28.70
2022-08-08T16:31:42.043Z,28.90
2022-08-08T16:34:18.369Z,29.10
2022-08-08T16:36:49.483Z,29.20
2022-08-08T16:39:49.005Z,29.20
2022-08-08T16:42:17.646Z,29.00
2022-08-08T16:44:47.547Z,28.90
2022-08-08T16:47:40.162Z,28.00
2022-08-08T16:50:14.110Z,27.90
2022-08-08T16:55:03.768Z,28.20
2022-08-08T16:55:54.284Z,28.50
2022-08-08T16:58:20.942Z,28.80
2022-08-08T17:00:51.782Z,29.00
2022-08-08T17:03:24.228Z,29.10
2022-08-08T17:05:56.356Z,29.30
2022-08-08T17:08:24.645Z,29.40
2022-08-08T17:10:59.453Z,29.40
2022-08-08T17:13:40.965Z,28.70
2022-08-08T17:16:22.298Z,28.80
2022-08-08T17:18:53.750Z,28.90
2022-08-08T17:21:21.864Z,28.90
2022-08-08T17:23:58.159Z,29.10
2022-08-08T17:26:30.206Z,29.30
2022-08-08T17:28:58.592Z,29.50
2022-08-08T17:31:45.160Z,29.50
2022-08-08T17:34:52.897Z,29.50
2022-08-08T17:37:06.795Z,29.60
2022-08-08T17:40:03.439Z,29.70
2022-08-08T17:42:27.183Z,29.70
2022-08-08T17:44:55.236Z,29.40
2022-08-08T17:47:28.176Z,29.50
2022-08-08T17:50:10.892Z,29.20
2022-08-08T17:52:43.404Z,28.80
2022-08-08T17:56:03.547Z,28.70
2022-08-08T17:58:03.591Z,28.70
2022-08-08T18:00:31.568Z,29.00
2022-08-08T18:03:08.820Z,29.10
2022-08-08T18:05:48.033Z,29.30
2022-08-08T18:08:37.897Z,29.30
2022-08-08T18:11:05.992Z,29.00
2022-08-08T18:13:34.947Z,29.20
2022-08-08T18:16:09.555Z,29.40
2022-08-08T18:18:45.182Z,29.40
2022-08-08T18:21:25.094Z,29.20
2022-08-08T18:24:04.311Z,28.70
2022-08-08T18:26:33.781Z,28.90
2022-08-08T18:29:02.833Z,29.00
2022-08-08T18:31:34.012Z,28.90
2022-08-08T18:34:11.345Z,28.60
2022-08-08T18:36:55.552Z,28.90
2022-08-08T18:39:27.474Z,28.60
2022-08-08T18:41:58.232Z,28.50
2022-08-08T18:44:34.718Z,28.40
2022-08-08T18:47:04.491Z,28.20
2022-08-08T18:49:54.845Z,28.00
2022-08-08T18:52:23.613Z,28.00
2022-08-08T18:54:59.558Z,27.90
2022-08-08T18:57:31.583Z,28.10
2022-08-08T19:00:10.711Z,28.20
2022-08-08T19:02:48.061Z,28.40
2022-08-08T19:05:24.559Z,28.60
2022-08-08T19:08:02.953Z,28.70
2022-08-08T19:10:32.165Z,28.70
2022-08-08T19:13:00.335Z,28.80
2022-08-08T19:15:34.213Z,28.90
2022-08-08T19:18:31.824Z,28.90
2022-08-08T19:20:54.237Z,29.00
2022-08-08T19:23:23.811Z,29.10
2022-08-08T19:26:19.875Z,29.10
2022-08-08T19:28:41.931Z,29.10
2022-08-08T19:31:13.086Z,29.20
2022-08-08T19:34:05.055Z,29.10
2022-08-08T19:36:33.601Z,29.10
2022-08-08T19:39:03.022Z,29.10
2022-08-08T19:41:33.933Z,29.10
2022-08-08T19:44:03.063Z,28.90
2022-08-08T19:46:33.462Z,28.80
2022-08-08T19:49:03.133Z,28.60
2022-08-08T19:51:34.022Z,28.50
2022-08-08T19:54:04.533Z,28.30
2022-08-08T19:56:39.983Z,28.20
2022-08-08T19:59:10.096Z,28.10
2022-08-08T20:02:01.843Z,27.90
2022-08-08T20:04:29.342Z,27.90
2022-08-08T20:06:57.825Z,27.70
2022-08-08T20:09:32.720Z,27.60
2022-08-08T20:12:14.123Z,27.60
2022-08-08T20:14:51.582Z,27.50
2022-08-08T20:17:27.963Z,27.60
2022-08-08T20:19:57.098Z,27.60
2022-08-08T20:22:30.434Z,27.60
2022-08-08T20:25:00.596Z,27.60
2022-08-08T20:27:32.913Z,27.60
2022-08-08T20:30:52.678Z,27.60
2022-08-08T20:33:18.516Z,27.60
2022-08-08T20:35:57.574Z,27.70
2022-08-08T20:38:32.990Z,27.70
2022-08-08T20:41:05.968Z,27.80
2022-08-08T20:43:48.296Z,27.90
2022-08-08T20:46:20.626Z,27.90
2022-08-08T20:48:51.042Z,27.90
2022-08-08T20:51:20.976Z,28.00
2022-08-08T20:53:59.113Z,28.00
2022-08-08T20:56:35.100Z,27.90
2022-08-08T20:59:05.844Z,27.80
2022-08-08T21:02:05.391Z,27.80
2022-08-08T21:04:23.321Z,27.90
2022-08-08T21:06:52.626Z,27.80
2022-08-08T21:09:22.007Z,27.90
2022-08-08T21:11:53.621Z,27.80
2022-08-08T21:14:34.507Z,27.80
2022-08-08T21:17:06.330Z,27.70
2022-08-08T21:19:46.102Z,27.60
2022-08-08T21:22:16.039Z,27.60
2022-08-08T21:24:52.941Z,27.60
2022-08-08T21:28:06.482Z,27.60
2022-08-08T21:30:19.068Z,27.60
2022-08-08T21:32:51.970Z,27.50
2022-08-08T21:36:16.914Z,27.40
2022-08-08T21:38:16.315Z,27.50
2022-08-08T21:40:55.799Z,27.40
2022-08-08T21:43:33.085Z,27.40
2022-08-08T21:48:19.401Z,27.30
2022-08-08T21:48:51.817Z,27.30
2022-08-08T21:54:18.084Z,27.40
2022-08-08T21:54:31.360Z,27.40
2022-08-08T21:56:59.210Z,27.40
2022-08-08T22:00:01.416Z,27.30
2022-08-08T22:02:19.530Z,27.30
2022-08-08T22:04:53.499Z,27.20
2022-08-08T22:07:26.011Z,27.20
2022-08-08T22:10:02.925Z,27.20
2022-08-08T22:12:38.739Z,27.20
2022-08-08T22:15:09.587Z,27.00
2022-08-08T22:17:41.413Z,27.00
2022-08-08T22:20:23.862Z,26.70
2022-08-08T22:22:56.315Z,26.40
2022-08-08T22:25:24.936Z,26.30
2022-08-08T22:28:03.033Z,26.50
2022-08-08T22:30:44.057Z,26.40
2022-08-08T22:34:10.685Z,26.50
2022-08-08T22:36:12.310Z,26.50
2022-08-08T22:38:48.834Z,26.60
2022-08-08T22:41:21.479Z,26.50
2022-08-08T22:44:03.023Z,26.50
2022-08-08T22:46:38.961Z,26.60
2022-08-08T22:49:09.418Z,26.60
2022-08-08T22:51:42.603Z,26.60
2022-08-08T22:54:33.909Z,26.60
2022-08-08T22:57:11.713Z,26.60
2022-08-08T22:59:48.394Z,26.60
2022-08-08T23:02:29.552Z,26.60
2022-08-08T23:05:05.310Z,26.60
2022-08-08T23:07:57.805Z,26.60
2022-08-08T23:10:25.275Z,26.50
2022-08-08T23:12:54.983Z,26.50
2022-08-08T23:16:38.800Z,26.50
2022-08-08T23:18:13.667Z,26.50
2022-08-08T23:20:44.218Z,26.40
2022-08-08T23:23:13.025Z,26.30
2022-08-08T23:25:48.233Z,26.30
2022-08-08T23:28:18.867Z,26.20
2022-08-08T23:30:47.845Z,26.20
2022-08-08T23:33:20.899Z,26.10
2022-08-08T23:36:08.106Z,26.10
2022-08-08T23:38:44.206Z,26.00
2022-08-08T23:41:23.225Z,26.00
2022-08-08T23:43:56.396Z,26.10
2022-08-08T23:49:07.122Z,26.10
2022-08-08T23:49:18.822Z,26.20
2022-08-08T23:52:06.574Z,26.20
2022-08-08T23:54:41.378Z,26.20
2022-08-08T23:57:26.519Z,26.20
